Time;durP1;ratioP1;P1;durP2;ratioP2;P2;SDS_P1;SDS_P2;PMS_P1;PMS_P2;Temp;Humidity;BMP_temperature;BMP_pressure;BME280_temperature;BME280_humidity;BME280_pressure;Samples;Min_cycle;Max_cycle;Signal;HPM_P1;HPM_P2
2022/03/21 00:01:56;;;;;;;40.67;28.15;;;;;;;;;;4981600;28;20037;-80
2022/03/21 00:04:22;;;;;;;38.65;26.85;;;;;;;;;;4979934;28;20683;-82
2022/03/21 00:06:47;;;;;;;43.22;27.20;;;;;;;;;;4976660;28;20033;-84
2022/03/21 00:09:13;;;;;;;40.75;26.80;;;;;;;;;;4983772;28;20022;-83
2022/03/21 00:11:38;;;;;;;39.72;25.35;;;;;;;;;;4984232;28;20478;-80
2022/03/21 00:14:04;;;;;;;39.58;27.83;;;;;;;;;;4968372;28;20514;-83
2022/03/21 00:16:30;;;;;;;41.70;27.08;;;;;;;;;;4985866;28;20023;-81
2022/03/21 00:18:55;;;;;;;40.35;27.20;;;;;;;;;;4972664;28;20023;-80
2022/03/21 00:21:21;;;;;;;40.13;27.75;;;;;;;;;;4972519;28;20018;-83
2022/03/21 00:23:47;;;;;;;38.65;27.00;;;;;;;;;;4990969;28;20030;-80
2022/03/21 00:26:13;;;;;;;40.17;27.15;;;;;;;;;;4981025;28;20830;-82
2022/03/21 00:28:38;;;;;;;43.08;28.08;;;;;;;;;;4961631;28;20128;-81
2022/03/21 00:31:04;;;;;;;42.30;27.17;;;;;;;;;;4979954;28;20407;-82
2022/03/21 00:33:30;;;;;;;39.80;27.55;;;;;;;;;;4982752;28;20034;-79
2022/03/21 00:35:58;;;;;;;42.42;27.85;;;;;;;;;;4986633;28;20863;-79
2022/03/21 00:38:23;;;;;;;41.72;27.60;;;;;;;;;;4997518;28;20397;-82
2022/03/21 00:40:49;;;;;;;43.15;26.92;;;;;;;;;;4981031;28;20047;-82
2022/03/21 00:43:22;;;;;;;44.15;28.30;;;;;;;;;;5003480;28;20470;-81
2022/03/21 00:45:49;;;;;;;43.63;28.77;;;;;;;;;;4986758;28;20027;-83
2022/03/21 00:48:14;;;;;;;42.67;27.95;;;;;;;;;;4975120;28;20085;-83
2022/03/21 00:50:40;;;;;;;42.63;28.90;;;;;;;;;;4995324;28;20439;-83
2022/03/21 00:53:05;;;;;;;46.47;28.73;;;;;;;;;;4964986;28;20057;-80
2022/03/21 00:55:30;;;;;;;43.53;28.67;;;;;;;;;;4968125;28;20026;-79
2022/03/21 00:57:57;;;;;;;41.78;27.83;;;;;;;;;;4967351;28;20026;-81
2022/03/21 01:00:25;;;;;;;42.95;28.17;;;;;;;;;;5002377;28;20097;-82
2022/03/21 01:02:51;;;;;;;43.45;27.80;;;;;;;;;;4972001;28;20030;-83
2022/03/21 01:05:17;;;;;;;40.25;26.77;;;;;;;;;;4966184;28;20077;-80
2022/03/21 01:07:43;;;;;;;38.03;26.42;;;;;;;;;;4963600;28;20070;-79
2022/03/21 01:10:11;;;;;;;43.35;27.60;;;;;;;;;;4997038;28;20026;-82
2022/03/21 01:12:37;;;;;;;40.42;26.67;;;;;;;;;;4980413;28;20090;-80
2022/03/21 01:15:03;;;;;;;40.85;27.80;;;;;;;;;;4964942;28;20037;-82
2022/03/21 01:17:29;;;;;;;41.92;26.45;;;;;;;;;;4981571;28;20041;-81
2022/03/21 01:19:54;;;;;;;41.85;27.75;;;;;;;;;;4985004;28;20480;-79
2022/03/21 01:22:19;;;;;;;40.90;28.00;;;;;;;;;;4981528;28;20026;-83
2022/03/21 01:24:45;;;;;;;43.05;27.33;;;;;;;;;;4980805;28;20027;-83
2022/03/21 01:27:11;;;;;;;40.97;27.33;;;;;;;;;;4960082;28;20038;-80
2022/03/21 01:29:37;;;;;;;43.20;27.48;;;;;;;;;;4965601;28;20502;-81
2022/03/21 01:32:03;;;;;;;37.88;26.17;;;;;;;;;;4963425;28;20030;-82
2022/03/21 01:34:28;;;;;;;43.53;28.02;;;;;;;;;;4978821;28;20471;-80
2022/03/21 01:36:54;;;;;;;41.83;27.60;;;;;;;;;;4981736;28;20157;-82
2022/03/21 01:39:19;;;;;;;37.50;25.48;;;;;;;;;;4980995;28;20115;-82
2022/03/21 01:41:45;;;;;;;41.47;26.75;;;;;;;;;;4963303;28;20030;-84
2022/03/21 01:44:11;;;;;;;42.60;26.25;;;;;;;;;;4982263;28;20589;-80
2022/03/21 01:46:38;;;;;;;40.22;26.88;;;;;;;;;;4966936;28;20038;-82
2022/03/21 01:49:06;;;;;;;41.85;26.42;;;;;;;;;;4963600;28;20029;-80
2022/03/21 01:51:32;;;;;;;40.30;26.55;;;;;;;;;;4980867;28;20119;-80
2022/03/21 01:56:45;;;;;;;41.95;27.63;;;;;;;;;;4985036;28;20053;-83
2022/03/21 01:59:11;;;;;;;44.97;27.83;;;;;;;;;;4985135;28;20030;-82
2022/03/21 02:01:37;;;;;;;44.42;28.98;;;;;;;;;;4967961;28;20487;-80
2022/03/21 02:04:03;;;;;;;44.10;28.40;;;;;;;;;;4968139;28;20530;-83
2022/03/21 02:06:29;;;;;;;43.50;27.77;;;;;;;;;;4989314;28;20360;-79
2022/03/21 02:08:59;;;;;;;44.53;27.63;;;;;;;;;;5004573;28;20117;-81
2022/03/21 02:11:26;;;;;;;43.67;28.88;;;;;;;;;;4955658;28;20558;-80
2022/03/21 02:13:58;;;;;;;42.00;27.45;;;;;;;;;;4984973;28;20060;-79
2022/03/21 02:16:26;;;;;;;43.25;26.80;;;;;;;;;;4979034;28;20041;-83
2022/03/21 02:18:52;;;;;;;42.60;27.58;;;;;;;;;;4978930;28;20038;-81
2022/03/21 02:21:30;;;;;;;44.22;27.27;;;;;;;;;;4981227;28;20081;-83
2022/03/21 02:24:07;;;;;;;43.38;26.58;;;;;;;;;;4995140;28;20462;-82
2022/03/21 02:26:35;;;;;;;45.30;27.70;;;;;;;;;;4964093;28;20043;-80
2022/03/21 02:29:02;;;;;;;40.75;26.65;;;;;;;;;;4981292;28;20026;-80
2022/03/21 02:31:28;;;;;;;42.10;26.63;;;;;;;;;;4994941;28;20077;-80
2022/03/21 02:33:55;;;;;;;41.13;26.98;;;;;;;;;;4998658;28;20038;-80
2022/03/21 02:36:20;;;;;;;41.75;25.88;;;;;;;;;;4992360;28;21568;-83
2022/03/21 02:38:46;;;;;;;42.45;25.27;;;;;;;;;;4996552;28;20030;-83
2022/03/21 02:41:17;;;;;;;42.38;27.35;;;;;;;;;;4980548;28;20121;-80
2022/03/21 02:43:56;;;;;;;44.47;26.42;;;;;;;;;;4995843;28;20031;-82
2022/03/21 02:46:23;;;;;;;39.88;26.23;;;;;;;;;;4968186;28;20030;-83
2022/03/21 02:48:50;;;;;;;43.10;26.35;;;;;;;;;;4982762;28;20038;-83
2022/03/21 02:51:18;;;;;;;41.60;25.73;;;;;;;;;;4966653;28;20100;-83
2022/03/21 02:53:45;;;;;;;39.53;24.80;;;;;;;;;;4966538;28;20022;-81
2022/03/21 02:56:10;;;;;;;41.42;25.48;;;;;;;;;;4966142;28;20076;-80
2022/03/21 02:58:36;;;;;;;42.50;25.83;;;;;;;;;;4988923;28;20495;-80
2022/03/21 03:01:13;;;;;;;41.67;25.85;;;;;;;;;;4963051;28;20060;-83
2022/03/21 03:03:39;;;;;;;42.35;26.25;;;;;;;;;;4962991;28;20390;-83
2022/03/21 03:06:04;;;;;;;42.15;25.63;;;;;;;;;;4984109;28;20038;-82
2022/03/21 03:08:31;;;;;;;38.92;24.50;;;;;;;;;;4979739;28;20037;-83
2022/03/21 03:10:56;;;;;;;42.78;25.02;;;;;;;;;;4997647;28;20042;-80
2022/03/21 03:13:22;;;;;;;41.45;24.08;;;;;;;;;;4969348;28;20487;-82
2022/03/21 03:15:47;;;;;;;42.95;23.02;;;;;;;;;;4973018;28;20027;-82
2022/03/21 03:18:13;;;;;;;39.00;23.55;;;;;;;;;;4975073;28;20053;-82
2022/03/21 03:20:52;;;;;;;39.83;22.70;;;;;;;;;;4990277;28;20058;-83
2022/03/21 03:23:25;;;;;;;37.60;23.75;;;;;;;;;;4969727;28;20034;-81
2022/03/21 03:25:59;;;;;;;39.05;22.58;;;;;;;;;;4965537;28;20026;-83
2022/03/21 03:28:25;;;;;;;37.65;22.65;;;;;;;;;;4985020;28;20041;-82
2022/03/21 03:30:51;;;;;;;37.33;23.27;;;;;;;;;;4996525;28;20597;-83
2022/03/21 03:33:17;;;;;;;36.95;23.23;;;;;;;;;;4965291;28;20050;-80
2022/03/21 03:35:42;;;;;;;36.78;23.33;;;;;;;;;;4971174;28;20037;-83
2022/03/21 03:38:08;;;;;;;38.88;23.63;;;;;;;;;;4969384;28;20030;-79
2022/03/21 03:40:33;;;;;;;34.05;21.73;;;;;;;;;;5001481;28;20042;-82
2022/03/21 03:42:58;;;;;;;34.97;22.48;;;;;;;;;;4967677;28;20026;-82
2022/03/21 03:45:25;;;;;;;38.60;22.88;;;;;;;;;;4965174;28;20364;-82
2022/03/21 03:47:51;;;;;;;37.65;22.95;;;;;;;;;;4986050;28;20155;-80
2022/03/21 03:50:17;;;;;;;38.08;23.08;;;;;;;;;;5004333;28;20033;-80
2022/03/21 03:52:45;;;;;;;34.75;22.83;;;;;;;;;;4973723;28;20030;-83
2022/03/21 03:55:11;;;;;;;35.88;22.33;;;;;;;;;;4973499;28;20589;-81
2022/03/21 03:57:36;;;;;;;36.13;22.33;;;;;;;;;;4975026;28;20034;-82
2022/03/21 04:00:03;;;;;;;36.55;22.40;;;;;;;;;;4968964;28;20402;-82
2022/03/21 04:02:28;;;;;;;35.00;22.13;;;;;;;;;;4974773;28;20390;-80
2022/03/21 04:04:53;;;;;;;36.45;22.40;;;;;;;;;;4971615;28;20034;-80
2022/03/21 04:07:23;;;;;;;35.80;22.02;;;;;;;;;;4989692;28;20103;-82
2022/03/21 04:09:48;;;;;;;33.70;22.00;;;;;;;;;;5003812;28;20435;-80
2022/03/21 04:12:13;;;;;;;35.72;22.52;;;;;;;;;;4973993;28;20022;-81
2022/03/21 04:14:39;;;;;;;36.55;22.67;;;;;;;;;;5004189;28;20108;-80
2022/03/21 04:17:04;;;;;;;34.92;21.17;;;;;;;;;;4989914;28;20030;-83
2022/03/21 04:19:29;;;;;;;34.20;21.50;;;;;;;;;;4987878;28;20020;-83
2022/03/21 04:21:54;;;;;;;35.72;21.50;;;;;;;;;;4970405;28;20030;-82
2022/03/21 04:24:20;;;;;;;33.45;20.17;;;;;;;;;;4989968;28;20493;-79
2022/03/21 04:26:45;;;;;;;34.20;20.25;;;;;;;;;;5004377;28;20073;-80
2022/03/21 04:29:11;;;;;;;32.78;19.73;;;;;;;;;;4974777;28;20053;-80
2022/03/21 04:31:36;;;;;;;34.05;20.65;;;;;;;;;;4986628;28;20030;-84
2022/03/21 04:34:02;;;;;;;31.60;20.85;;;;;;;;;;4969429;28;20048;-82
2022/03/21 04:36:28;;;;;;;31.02;20.05;;;;;;;;;;5007753;28;20390;-83
2022/03/21 04:38:54;;;;;;;32.28;19.73;;;;;;;;;;4971099;28;20061;-81
2022/03/21 04:41:19;;;;;;;30.15;19.33;;;;;;;;;;4968408;28;20065;-82
2022/03/21 04:43:44;;;;;;;32.25;20.00;;;;;;;;;;4981950;28;20734;-82
2022/03/21 04:46:10;;;;;;;32.67;19.80;;;;;;;;;;4967095;28;20034;-83
2022/03/21 04:48:36;;;;;;;29.20;20.05;;;;;;;;;;4968743;28;20421;-81
2022/03/21 04:51:02;;;;;;;32.00;19.45;;;;;;;;;;4966238;28;20030;-82
2022/03/21 04:53:27;;;;;;;30.83;20.02;;;;;;;;;;4968223;28;20097;-80
2022/03/21 04:55:52;;;;;;;31.48;20.05;;;;;;;;;;4964447;28;20030;-80
2022/03/21 04:58:18;;;;;;;30.65;19.15;;;;;;;;;;4997191;28;20034;-79
2022/03/21 05:00:44;;;;;;;30.98;18.88;;;;;;;;;;4984140;28;20041;-81
2022/03/21 05:03:10;;;;;;;31.20;19.17;;;;;;;;;;4983132;28;20109;-80
2022/03/21 05:05:36;;;;;;;32.70;19.20;;;;;;;;;;5000477;28;20490;-80
2022/03/21 05:08:02;;;;;;;29.98;17.80;;;;;;;;;;4967554;28;20037;-82
2022/03/21 05:10:29;;;;;;;29.42;18.25;;;;;;;;;;4997804;28;20035;-82
2022/03/21 05:12:54;;;;;;;29.15;18.42;;;;;;;;;;5005898;28;20478;-82
2022/03/21 05:15:20;;;;;;;28.88;18.33;;;;;;;;;;4965648;28;20025;-81
2022/03/21 05:17:46;;;;;;;28.83;18.08;;;;;;;;;;4967017;28;21075;-80
2022/03/21 05:20:16;;;;;;;27.52;17.13;;;;;;;;;;4963787;28;20077;-81
2022/03/21 05:22:42;;;;;;;29.17;17.65;;;;;;;;;;4980485;28;20412;-82
2022/03/21 05:36:04;;;;;;;30.35;17.58;;;;;;;;;;4981461;28;20446;-80
2022/03/21 05:38:31;;;;;;;28.50;16.75;;;;;;;;;;4980858;28;20034;-82
2022/03/21 05:41:00;;;;;;;29.85;18.15;;;;;;;;;;4976978;28;20055;-80
2022/03/21 05:43:26;;;;;;;28.63;17.77;;;;;;;;;;4983869;28;20045;-79
2022/03/21 05:45:52;;;;;;;28.38;16.90;;;;;;;;;;4986296;28;20120;-81
2022/03/21 05:51:02;;;;;;;28.33;17.50;;;;;;;;;;4985926;28;20060;-79
2022/03/21 05:53:27;;;;;;;29.17;17.92;;;;;;;;;;4982418;28;20034;-80
2022/03/21 05:55:55;;;;;;;28.17;17.02;;;;;;;;;;4984037;28;20029;-84
2022/03/21 05:58:21;;;;;;;27.48;16.75;;;;;;;;;;4966076;28;20365;-83
2022/03/21 06:00:46;;;;;;;32.35;17.67;;;;;;;;;;4979437;28;20026;-80
2022/03/21 06:03:12;;;;;;;27.20;16.80;;;;;;;;;;4965309;28;20367;-81
2022/03/21 06:05:37;;;;;;;28.17;17.13;;;;;;;;;;4981948;28;20034;-84
2022/03/21 06:08:03;;;;;;;24.95;16.67;;;;;;;;;;4964990;28;20165;-82
2022/03/21 06:10:29;;;;;;;25.75;15.77;;;;;;;;;;4982138;28;20026;-82
2022/03/21 06:12:55;;;;;;;25.67;16.25;;;;;;;;;;4987579;28;20093;-80
2022/03/21 06:15:21;;;;;;;28.00;16.52;;;;;;;;;;4972310;28;20038;-84
2022/03/21 06:17:46;;;;;;;26.85;15.60;;;;;;;;;;4966108;28;20022;-81
2022/03/21 06:20:13;;;;;;;27.40;15.88;;;;;;;;;;4966532;28;20022;-80
2022/03/21 06:22:39;;;;;;;28.58;15.57;;;;;;;;;;4967897;28;20034;-83
2022/03/21 06:25:06;;;;;;;23.88;15.48;;;;;;;;;;4987594;28;20383;-80
2022/03/21 06:27:39;;;;;;;26.60;15.45;;;;;;;;;;4986192;28;21861;-80
2022/03/21 06:30:07;;;;;;;24.30;15.55;;;;;;;;;;4972045;28;20031;-80
2022/03/21 06:32:34;;;;;;;26.38;16.35;;;;;;;;;;4972674;28;20043;-83
2022/03/21 06:34:59;;;;;;;26.38;15.55;;;;;;;;;;4967047;28;20073;-83
2022/03/21 06:37:24;;;;;;;26.88;16.33;;;;;;;;;;4968481;28;20104;-82
2022/03/21 06:39:50;;;;;;;26.67;15.90;;;;;;;;;;4986551;28;20058;-83
2022/03/21 06:42:16;;;;;;;23.90;14.98;;;;;;;;;;5004852;28;20439;-82
2022/03/21 06:44:42;;;;;;;26.85;15.25;;;;;;;;;;4973000;28;20153;-82
2022/03/21 06:47:09;;;;;;;24.40;15.75;;;;;;;;;;4985373;28;20117;-80
2022/03/21 06:49:35;;;;;;;24.08;16.25;;;;;;;;;;4983016;28;20042;-82
2022/03/21 06:52:05;;;;;;;26.40;16.38;;;;;;;;;;4968750;28;20030;-82
2022/03/21 06:54:31;;;;;;;26.83;17.15;;;;;;;;;;4964333;28;20038;-81
2022/03/21 06:56:57;;;;;;;28.67;16.92;;;;;;;;;;4964452;28;20042;-80
2022/03/21 06:59:23;;;;;;;26.88;16.08;;;;;;;;;;4963809;28;20058;-82
2022/03/21 07:01:49;;;;;;;29.27;16.48;;;;;;;;;;4982391;28;20430;-82
2022/03/21 07:04:14;;;;;;;25.65;16.25;;;;;;;;;;4981336;28;20088;-82
2022/03/21 07:06:40;;;;;;;26.40;16.05;;;;;;;;;;4971673;28;20398;-80
2022/03/21 07:09:05;;;;;;;25.90;16.95;;;;;;;;;;4982306;28;20033;-81
2022/03/21 07:11:32;;;;;;;27.65;16.77;;;;;;;;;;4983505;28;20057;-82
2022/03/21 07:13:57;;;;;;;26.55;16.35;;;;;;;;;;4965673;28;20033;-82
2022/03/21 07:16:23;;;;;;;25.55;16.35;;;;;;;;;;4970040;28;20030;-81
2022/03/21 07:18:49;;;;;;;26.80;17.02;;;;;;;;;;4974744;28;20038;-80
2022/03/21 07:21:16;;;;;;;27.58;17.48;;;;;;;;;;4969381;28;20030;-81
2022/03/21 07:23:42;;;;;;;31.00;18.23;;;;;;;;;;4967023;28;20022;-82
2022/03/21 07:26:07;;;;;;;29.98;17.45;;;;;;;;;;4992291;28;20044;-86
2022/03/21 07:28:32;;;;;;;27.77;17.05;;;;;;;;;;4975925;28;20076;-81
2022/03/21 07:30:58;;;;;;;28.08;17.38;;;;;;;;;;4967376;28;20037;-85
2022/03/21 07:33:26;;;;;;;26.80;18.02;;;;;;;;;;4976122;28;20035;-81
2022/03/21 07:35:52;;;;;;;28.13;17.83;;;;;;;;;;4972006;28;20101;-81
2022/03/21 07:38:22;;;;;;;32.78;18.48;;;;;;;;;;4983415;28;20117;-84
2022/03/21 07:40:47;;;;;;;30.52;18.33;;;;;;;;;;4985427;28;20056;-84
2022/03/21 07:43:13;;;;;;;31.08;20.30;;;;;;;;;;4968382;28;20034;-85
2022/03/21 07:48:23;;;;;;;31.15;19.05;;;;;;;;;;4982580;28;20041;-82
2022/03/21 07:50:49;;;;;;;29.77;18.25;;;;;;;;;;4978084;28;20034;-81
2022/03/21 07:53:15;;;;;;;30.35;18.67;;;;;;;;;;4964952;28;20034;-81
2022/03/21 07:55:40;;;;;;;31.95;17.92;;;;;;;;;;4970774;28;20035;-82
2022/03/21 07:58:06;;;;;;;27.15;16.92;;;;;;;;;;4966478;28;20121;-83
2022/03/21 08:00:31;;;;;;;32.85;18.33;;;;;;;;;;4969840;28;20026;-80
2022/03/21 08:02:58;;;;;;;29.42;16.88;;;;;;;;;;4986055;28;20030;-80
2022/03/21 08:05:24;;;;;;;30.95;17.15;;;;;;;;;;4987090;28;20084;-81
2022/03/21 08:07:51;;;;;;;28.25;16.15;;;;;;;;;;4988485;28;20030;-80
2022/03/21 08:10:19;;;;;;;26.95;17.27;;;;;;;;;;4991169;28;20026;-82
2022/03/21 08:12:46;;;;;;;27.05;16.75;;;;;;;;;;4972428;28;20038;-81
2022/03/21 08:15:13;;;;;;;25.70;16.23;;;;;;;;;;4991085;28;20125;-80
2022/03/21 08:18:01;;;;;;;28.17;17.05;;;;;;;;;;4969967;28;20162;-80
2022/03/21 08:20:35;;;;;;;27.90;16.45;;;;;;;;;;4982910;28;20024;-80
2022/03/21 08:23:03;;;;;;;26.23;16.25;;;;;;;;;;4984941;28;20419;-82
2022/03/21 08:25:29;;;;;;;29.98;16.92;;;;;;;;;;4971863;28;20494;-81
2022/03/21 08:27:54;;;;;;;28.83;16.25;;;;;;;;;;5008160;28;20062;-82
2022/03/21 08:30:20;;;;;;;23.38;15.85;;;;;;;;;;4972255;28;20066;-80
2022/03/21 08:32:46;;;;;;;25.50;14.50;;;;;;;;;;4973428;28;20422;-84
2022/03/21 08:35:11;;;;;;;26.98;15.43;;;;;;;;;;4976295;28;20096;-83
2022/03/21 08:37:37;;;;;;;26.45;15.32;;;;;;;;;;4972808;28;20036;-81
2022/03/21 08:40:03;;;;;;;25.20;15.15;;;;;;;;;;4990430;28;20049;-80
2022/03/21 08:42:29;;;;;;;26.27;15.82;;;;;;;;;;5001117;28;20072;-80
2022/03/21 08:44:55;;;;;;;24.40;15.93;;;;;;;;;;5008935;28;20116;-80
2022/03/21 08:47:20;;;;;;;23.77;13.68;;;;;;;;;;4968304;28;20031;-82
2022/03/21 08:49:46;;;;;;;25.02;14.80;;;;;;;;;;4968859;28;20041;-80
2022/03/21 08:52:13;;;;;;;24.00;14.98;;;;;;;;;;4985643;28;20117;-81
2022/03/21 08:54:39;;;;;;;25.80;15.18;;;;;;;;;;5005975;28;20479;-80
2022/03/21 08:57:05;;;;;;;24.17;15.25;;;;;;;;;;4978552;28;20107;-84
2022/03/21 08:59:31;;;;;;;24.42;14.88;;;;;;;;;;4990391;28;20159;-84
2022/03/21 09:01:56;;;;;;;25.92;15.40;;;;;;;;;;4984638;28;20034;-83
2022/03/21 09:04:22;;;;;;;27.02;14.75;;;;;;;;;;4985651;28;20037;-82
2022/03/21 09:06:48;;;;;;;22.75;14.75;;;;;;;;;;4987886;28;20026;-85
2022/03/21 09:09:13;;;;;;;23.33;13.98;;;;;;;;;;4985603;28;20174;-81
2022/03/21 09:11:38;;;;;;;24.55;14.73;;;;;;;;;;4972268;28;20067;-84
2022/03/21 09:14:04;;;;;;;23.60;14.35;;;;;;;;;;4984173;28;20030;-81
2022/03/21 09:16:29;;;;;;;23.17;14.45;;;;;;;;;;4998160;28;20030;-82
2022/03/21 09:18:55;;;;;;;24.33;14.13;;;;;;;;;;4970731;28;20499;-82
2022/03/21 09:21:20;;;;;;;21.70;14.18;;;;;;;;;;4996596;28;20023;-83
2022/03/21 09:23:45;;;;;;;23.95;14.13;;;;;;;;;;4984672;28;20494;-82
2022/03/21 09:26:11;;;;;;;25.63;14.00;;;;;;;;;;4988868;28;20026;-82
2022/03/21 09:28:42;;;;;;;26.95;14.27;;;;;;;;;;5003354;28;20038;-81
2022/03/21 09:31:07;;;;;;;24.60;13.98;;;;;;;;;;4970577;28;20395;-81
2022/03/21 09:33:34;;;;;;;20.55;12.43;;;;;;;;;;4991391;28;20033;-81
2022/03/21 09:35:59;;;;;;;22.63;12.88;;;;;;;;;;4975202;28;20026;-83
2022/03/21 09:38:25;;;;;;;24.00;13.27;;;;;;;;;;4974074;28;20041;-81
2022/03/21 09:40:50;;;;;;;21.00;12.75;;;;;;;;;;4977990;28;20038;-81
2022/03/21 09:43:16;;;;;;;23.45;13.60;;;;;;;;;;4973250;28;20046;-83
2022/03/21 09:45:42;;;;;;;23.52;13.55;;;;;;;;;;4989694;28;20026;-80
2022/03/21 09:48:08;;;;;;;20.83;12.63;;;;;;;;;;5003041;28;20030;-83
2022/03/21 09:50:35;;;;;;;21.35;12.65;;;;;;;;;;4971521;28;20512;-81
2022/03/21 09:53:02;;;;;;;19.33;11.93;;;;;;;;;;4987417;28;20054;-81
2022/03/21 09:55:28;;;;;;;20.20;11.75;;;;;;;;;;4990900;28;20030;-81
2022/03/21 09:57:53;;;;;;;21.20;12.27;;;;;;;;;;5005740;28;20092;-84
2022/03/21 10:00:19;;;;;;;22.77;12.23;;;;;;;;;;4973979;28;20028;-84
2022/03/21 10:02:44;;;;;;;24.02;12.00;;;;;;;;;;4978383;28;20157;-84
2022/03/21 10:05:34;;;;;;;17.70;11.60;;;;;;;;;;4975171;28;20038;-80
2022/03/21 10:08:23;;;;;;;19.85;11.05;;;;;;;;;;5004829;28;20030;-81
2022/03/21 10:11:03;;;;;;;19.85;11.18;;;;;;;;;;4990756;28;20034;-81
2022/03/21 10:13:31;;;;;;;18.60;10.73;;;;;;;;;;5007616;28;20033;-83
2022/03/21 10:16:17;;;;;;;18.15;10.60;;;;;;;;;;4973888;28;20117;-79
2022/03/21 10:18:54;;;;;;;18.73;11.73;;;;;;;;;;4967248;28;20481;-81
2022/03/21 10:21:22;;;;;;;16.45;10.40;;;;;;;;;;4972860;28;20029;-84
2022/03/21 10:23:58;;;;;;;20.95;12.25;;;;;;;;;;4992423;28;20038;-80
2022/03/21 10:26:27;;;;;;;20.33;11.73;;;;;;;;;;4971419;28;20034;-81
2022/03/21 10:29:00;;;;;;;19.83;11.45;;;;;;;;;;5005310;28;20030;-81
2022/03/21 10:31:36;;;;;;;19.95;11.25;;;;;;;;;;5003229;28;20494;-81
2022/03/21 10:34:04;;;;;;;17.38;10.48;;;;;;;;;;4978994;28;20023;-82
2022/03/21 10:36:29;;;;;;;17.15;10.27;;;;;;;;;;4972728;28;20474;-81
2022/03/21 10:39:09;;;;;;;16.70;10.80;;;;;;;;;;4989497;28;20084;-81
2022/03/21 10:41:36;;;;;;;18.80;10.57;;;;;;;;;;5006440;28;20398;-80
2022/03/21 10:44:06;;;;;;;16.63;10.45;;;;;;;;;;4988266;28;20054;-85
2022/03/21 10:46:32;;;;;;;21.08;11.18;;;;;;;;;;4991298;28;20065;-81
2022/03/21 10:49:01;;;;;;;18.77;10.30;;;;;;;;;;4976537;28;20453;-81
2022/03/21 10:51:45;;;;;;;15.07;9.57;;;;;;;;;;4982783;28;20062;-84
2022/03/21 10:54:36;;;;;;;17.95;10.82;;;;;;;;;;4974460;28;20030;-84
2022/03/21 10:57:03;;;;;;;15.50;10.48;;;;;;;;;;4973291;28;20026;-81
2022/03/21 10:59:28;;;;;;;16.02;10.23;;;;;;;;;;4978790;28;20022;-79
2022/03/21 11:02:10;;;;;;;21.33;12.07;;;;;;;;;;4977517;28;20562;-80
2022/03/21 11:04:37;;;;;;;21.15;11.13;;;;;;;;;;4977800;28;20026;-80
2022/03/21 11:07:04;;;;;;;18.73;11.82;;;;;;;;;;4990885;28;20498;-79
2022/03/21 11:09:30;;;;;;;17.38;11.13;;;;;;;;;;4969201;28;20035;-82
2022/03/21 11:11:55;;;;;;;18.15;10.90;;;;;;;;;;4986379;28;20085;-83
2022/03/21 11:14:23;;;;;;;17.13;11.23;;;;;;;;;;4985937;28;20032;-82
2022/03/21 11:16:50;;;;;;;20.23;12.18;;;;;;;;;;4984972;28;20096;-81
2022/03/21 11:19:16;;;;;;;17.90;11.90;;;;;;;;;;4967419;28;20467;-81
2022/03/21 11:21:42;;;;;;;18.85;12.70;;;;;;;;;;4969204;28;20041;-81
2022/03/21 11:24:09;;;;;;;18.90;12.13;;;;;;;;;;4986814;28;20109;-81
2022/03/21 11:26:43;;;;;;;21.92;12.77;;;;;;;;;;4998946;28;20034;-83
2022/03/21 11:29:37;;;;;;;17.92;12.15;;;;;;;;;;4974962;28;20033;-79
2022/03/21 11:32:37;;;;;;;18.92;11.52;;;;;;;;;;4976566;28;20045;-81
2022/03/21 11:35:14;;;;;;;20.67;12.55;;;;;;;;;;4977729;28;20026;-85
2022/03/21 11:37:40;;;;;;;19.35;12.93;;;;;;;;;;4992661;28;20026;-80
2022/03/21 11:40:30;;;;;;;19.60;13.20;;;;;;;;;;4969734;28;20039;-84
2022/03/21 11:43:19;;;;;;;19.38;12.18;;;;;;;;;;4970351;28;20034;-84
2022/03/21 11:45:44;;;;;;;22.02;14.13;;;;;;;;;;4970887;28;20379;-81
2022/03/21 11:48:18;;;;;;;21.67;14.10;;;;;;;;;;5002013;28;20081;-83
2022/03/21 11:51:10;;;;;;;19.48;13.18;;;;;;;;;;5003024;28;20314;-81
2022/03/21 11:53:44;;;;;;;19.42;12.75;;;;;;;;;;4985563;28;20062;-85
2022/03/21 11:56:14;;;;;;;23.15;13.32;;;;;;;;;;4984554;28;20034;-81
2022/03/21 11:58:40;;;;;;;21.13;13.75;;;;;;;;;;4970486;28;20113;-81
2022/03/21 12:01:12;;;;;;;23.88;12.98;;;;;;;;;;4966460;28;20164;-81
2022/03/21 12:03:41;;;;;;;25.30;14.20;;;;;;;;;;5000880;28;20034;-79
2022/03/21 12:06:23;;;;;;;20.88;13.40;;;;;;;;;;4968115;28;20548;-80
2022/03/21 12:08:55;;;;;;;21.65;13.65;;;;;;;;;;4980132;28;20402;-81
2022/03/21 12:11:38;;;;;;;21.98;13.10;;;;;;;;;;4983444;28;20117;-81
2022/03/21 12:14:22;;;;;;;17.98;13.43;;;;;;;;;;4976861;28;20109;-81
2022/03/21 12:17:11;;;;;;;26.92;13.68;;;;;;;;;;5001467;28;20065;-84
2022/03/21 12:19:45;;;;;;;24.25;13.27;;;;;;;;;;4985260;28;20517;-84
2022/03/21 12:22:43;;;;;;;22.42;13.40;;;;;;;;;;4985783;28;20494;-81
2022/03/21 12:25:27;;;;;;;20.13;13.55;;;;;;;;;;4998932;28;20105;-81
2022/03/21 12:28:16;;;;;;;22.73;13.65;;;;;;;;;;4999723;28;20386;-80
2022/03/21 12:30:42;;;;;;;19.55;12.75;;;;;;;;;;4990154;28;20023;-80
2022/03/21 12:33:10;;;;;;;21.75;13.13;;;;;;;;;;4984203;28;20060;-79
2022/03/21 12:35:38;;;;;;;24.48;14.55;;;;;;;;;;4987049;28;20041;-85
2022/03/21 12:38:24;;;;;;;25.10;14.05;;;;;;;;;;4961843;28;20026;-84
2022/03/21 12:40:53;;;;;;;22.83;14.05;;;;;;;;;;4984462;28;20050;-84
2022/03/21 12:43:29;;;;;;;21.80;13.70;;;;;;;;;;4999732;28;20302;-83
2022/03/21 12:46:06;;;;;;;24.23;13.90;;;;;;;;;;4971541;28;20026;-85
2022/03/21 12:48:33;;;;;;;20.17;12.45;;;;;;;;;;4999934;28;20184;-83
2022/03/21 12:50:59;;;;;;;25.67;13.68;;;;;;;;;;5000552;28;20549;-80
2022/03/21 12:53:36;;;;;;;19.85;13.32;;;;;;;;;;4967946;28;20035;-81
2022/03/21 12:56:08;;;;;;;22.05;13.77;;;;;;;;;;4987117;28;20034;-81
2022/03/21 12:58:34;;;;;;;21.52;14.80;;;;;;;;;;4999579;28;20036;-80
2022/03/21 13:01:02;;;;;;;19.92;14.13;;;;;;;;;;4999562;28;20384;-79
2022/03/21 13:03:27;;;;;;;23.92;13.32;;;;;;;;;;4999295;28;20030;-81
2022/03/21 13:11:34;;;;;;;23.13;14.10;;;;;;;;;;4985706;28;20041;-84
2022/03/21 13:14:19;;;;;;;21.48;13.52;;;;;;;;;;4986424;28;20283;-80
2022/03/21 13:16:50;;;;;;;20.95;13.82;;;;;;;;;;4984505;28;20045;-84
2022/03/21 13:19:19;;;;;;;21.52;14.80;;;;;;;;;;4992597;28;20061;-80
2022/03/21 13:21:47;;;;;;;22.90;13.55;;;;;;;;;;4985975;28;20033;-81
2022/03/21 13:24:13;;;;;;;21.55;13.15;;;;;;;;;;4968584;28;20165;-81
2022/03/21 13:26:38;;;;;;;23.77;13.60;;;;;;;;;;4986516;28;20125;-83
2022/03/21 13:29:09;;;;;;;24.63;13.57;;;;;;;;;;5000978;28;20022;-85
2022/03/21 13:31:34;;;;;;;22.42;13.73;;;;;;;;;;4978104;28;20038;-80
2022/03/21 13:34:03;;;;;;;19.08;14.73;;;;;;;;;;4967720;28;20485;-81
2022/03/21 13:36:29;;;;;;;24.92;14.65;;;;;;;;;;4982849;28;20041;-80
2022/03/21 13:39:16;;;;;;;24.65;15.15;;;;;;;;;;4980551;28;20448;-81
2022/03/21 13:41:57;;;;;;;20.92;14.40;;;;;;;;;;4986597;28;20030;-84
2022/03/21 13:44:27;;;;;;;24.42;14.70;;;;;;;;;;4982473;28;20038;-81
2022/03/21 13:46:59;;;;;;;21.92;14.60;;;;;;;;;;4997927;28;20096;-81
2022/03/21 13:50:06;;;;;;;25.20;15.38;;;;;;;;;;4966066;28;20590;-79
2022/03/21 13:52:58;;;;;;;22.88;13.63;;;;;;;;;;4886503;29;20060;-80
2022/03/21 13:55:26;;;;;;;19.90;13.63;;;;;;;;;;4871139;29;20056;-80
2022/03/21 13:57:54;;;;;;;20.38;14.35;;;;;;;;;;4936886;28;20040;-81
2022/03/21 14:00:35;;;;;;;21.42;13.95;;;;;;;;;;4997160;28;20041;-84
2022/03/21 14:03:02;;;;;;;22.75;13.48;;;;;;;;;;4982420;28;20036;-81
2022/03/21 14:05:35;;;;;;;25.50;15.45;;;;;;;;;;4969471;28;20026;-81
2022/03/21 14:08:17;;;;;;;24.23;14.98;;;;;;;;;;4973290;28;20048;-84
2022/03/21 14:10:45;;;;;;;28.15;14.80;;;;;;;;;;5008187;28;20026;-79
2022/03/21 14:13:29;;;;;;;21.30;14.23;;;;;;;;;;4967850;28;20034;-81
2022/03/21 14:15:58;;;;;;;22.05;13.63;;;;;;;;;;4986403;28;20026;-80
2022/03/21 14:18:29;;;;;;;23.35;13.63;;;;;;;;;;4992834;28;20034;-80
2022/03/21 14:20:55;;;;;;;20.50;13.95;;;;;;;;;;4990409;28;20073;-80
2022/03/21 14:23:21;;;;;;;22.45;13.90;;;;;;;;;;4973107;28;20034;-80
2022/03/21 14:28:31;;;;;;;23.38;14.52;;;;;;;;;;4987995;28;20565;-80
2022/03/21 14:30:57;;;;;;;27.08;14.20;;;;;;;;;;4972887;28;20034;-81
2022/03/21 14:33:23;;;;;;;23.85;14.70;;;;;;;;;;4967524;28;20121;-82
2022/03/21 14:35:49;;;;;;;25.85;14.93;;;;;;;;;;4984616;28;20049;-81
2022/03/21 14:38:14;;;;;;;23.02;13.77;;;;;;;;;;4959318;28;20501;-80
2022/03/21 14:40:40;;;;;;;23.80;14.38;;;;;;;;;;4968702;28;20042;-81
2022/03/21 14:43:06;;;;;;;28.08;14.50;;;;;;;;;;4967148;28;20414;-81
2022/03/21 14:45:33;;;;;;;21.95;13.80;;;;;;;;;;4983913;28;20084;-79
2022/03/21 14:47:58;;;;;;;22.55;13.88;;;;;;;;;;5004965;28;20021;-80
2022/03/21 14:50:24;;;;;;;21.45;14.15;;;;;;;;;;4987729;28;20079;-79
2022/03/21 14:52:49;;;;;;;21.83;14.23;;;;;;;;;;4988235;28;20072;-84